Latest Weather Observations for Kowanyama

IDQ60801

Issued at 9:32 am EST Sunday 30 August 2015 (issued every 30 minutes, with the page automatically refreshed every 10 minutes)

About weather observations | Map of weather stations | Latest weather observations for QLD | Other Formats
Station Details ID: 029038 Name: KOWANYAMA AIRPORT Lat: -15.48 Lon: 141.75 Height: 9.6 m
Data from the previous 72 hours. | See also: Recent months at Kowanyama
Date/Time
EST
Temp
°C
App
Temp
°C
Dew
Point
Rel
Hum
%
Delta-T
°C
Wind Press
QNH
hPa
Press
MSL
hPa
Rain
since 9 am
mm
Dir
 
Spd
km/h
Gust
km/h
Spd
kts
Gust
kts
30/09:00am 26.1 26.9 17.2 58 5.5 NNE 9 13 5 7 1017.4 1017.4 0.0
30/08:30am 24.4 25.5 17.1 63 4.5 N 7 13 4 7 1017.3 1017.3 0.0
30/08:00am 22.9 24.9 17.8 73 3.2 N 4 9 2 5 1017.1 1017.1 0.0
30/07:30am 21.0 24.2 18.9 88 1.3 CALM 0 0 0 0 1016.8 1016.8 0.0
30/07:00am 19.2 22.0 17.9 92 0.8 CALM 0 0 0 0 1016.4 1016.4 0.0
30/06:30am 19.2 21.9 17.7 91 0.9 CALM 0 0 0 0 1015.9 1015.9 0.0
30/06:00am 19.5 22.3 18.0 91 0.9 CALM 0 0 0 0 1015.4 1015.4 0.0
30/05:30am 19.8 21.6 18.3 91 0.9 NE 6 7 3 4 1015.0 1015.0 0.0
30/05:00am 19.8 22.3 18.1 90 1.1 N 2 7 1 4 1014.7 1014.7 0.0
30/04:30am 20.5 23.4 18.3 87 1.4 CALM 0 0 0 0 1014.8 1014.8 0.0
30/04:00am 20.9 23.9 18.5 86 1.5 CALM 0 0 0 0 1014.7 1014.7 0.0
30/03:30am 21.1 24.1 18.5 85 1.6 CALM 0 0 0 0 1014.7 1014.7 0.0
30/03:00am 21.8 25.0 18.8 83 1.9 CALM 0 0 0 0 1014.6 1014.6 0.0
30/02:30am 22.2 25.5 19.2 83 1.9 CALM 0 4 0 2 1014.9 1014.9 0.0
30/02:00am 22.1 24.6 19.1 83 1.9 NNE 4 7 2 4 1015.1 1015.1 0.0
30/01:30am 22.5 25.0 19.1 81 2.2 NE 4 9 2 5 1015.5 1015.5 0.0
30/01:00am 22.6 24.8 19.2 81 2.2 NE 6 9 3 5 1015.7 1015.7 0.0
30/12:30am 22.4 25.4 19.2 82 2.0 NNW 2 9 1 5 1015.7 1015.7 0.0
30/12:00am 21.9 23.9 19.1 84 1.8 NNE 7 15 4 8 1015.8 1015.8 0.0
 
Date/Time
EST
Temp
°C
App
Temp
°C
Dew
Point
Rel
Hum
%
Delta-T
°C
Wind Press
QNH
hPa
Press
MSL
hPa
Rain
since 9 am
mm
Dir
 
Spd
km/h
Gust
km/h
Spd
kts
Gust
kts
29/11:30pm 22.1 25.5 19.3 84 1.8 CALM 0 0 0 0 1015.1 1015.1 0.0
29/11:00pm 22.5 25.8 19.1 81 2.2 CALM 0 0 0 0 1015.3 1015.3 0.0
29/10:30pm 22.8 25.0 19.2 80 2.3 WSW 6 7 3 4 1015.3 1015.3 0.0
29/10:00pm 23.1 25.3 19.1 78 2.5 WSW 6 7 3 4 1015.3 1015.3 0.0
29/09:30pm 23.6 25.6 19.1 76 2.9 SW 7 9 4 5 1015.4 1015.4 0.0
29/09:00pm 24.0 25.6 19.1 74 3.1 WSW 9 11 5 6 1015.2 1015.2 0.0
29/08:30pm 24.3 25.8 18.9 72 3.4 WSW 9 15 5 8 1015.0 1015.0 0.0
29/08:00pm 24.8 26.2 18.7 69 3.9 SW 9 11 5 6 1014.6 1014.6 0.0
29/07:30pm 25.4 26.0 18.6 66 4.3 WSW 13 17 7 9 1014.0 1013.9 0.0
29/07:00pm 26.0 26.4 18.2 62 4.9 WSW 13 19 7 10 1013.7 1013.6 0.0
29/06:30pm 27.1 26.5 17.6 56 6.0 WSW 17 22 9 12 1013.2 1013.1 0.0
29/06:00pm 28.7 27.7 17.6 51 7.0 W 19 26 10 14 1012.8 1012.7 0.0
29/05:30pm 30.7 29.5 17.0 43 8.7 W 19 24 10 13 1012.4 1012.3 0.0
29/05:00pm 32.8 33.3 16.6 38 10.2 WSW 9 22 5 12 1012.1 1012.0 0.0
29/04:30pm 33.9 33.3 12.3 27 12.9 ESE 7 19 4 10 1012.0 1011.9 0.0
29/04:00pm 33.4 31.8 12.9 28 12.3 SE 13 20 7 11 1012.0 1011.9 0.0
29/03:30pm 33.6 32.7 13.6 29 12.1 E 11 20 6 11 1012.3 1012.2 0.0
29/03:00pm 33.4 32.4 13.5 30 12.1 SE 11 17 6 9 1012.7 1012.6 0.0
29/02:30pm 33.8 33.3 13.8 30 12.2 ENE 9 15 5 8 1013.2 1013.1 0.0
29/02:00pm 32.9 32.3 13.5 30 11.7 NNE 9 19 5 10 1013.8 1013.7 0.0
29/01:30pm 33.0 32.5 15.0 33 11.1 E 11 19 6 10 1014.5 1014.5 0.0
29/01:00pm 31.1 30.6 13.8 34 10.4 ESE 9 20 5 11 1015.3 1015.3 0.0
29/12:30pm 31.3 30.8 14.9 37 10.1 E 11 17 6 9 1015.9 1015.9 0.0
29/12:00pm 30.0 29.4 14.5 38 9.4 E 11 19 6 10 1016.6 1016.6 0.0
29/11:30am 30.3 29.8 16.0 42 8.9 ENE 13 22 7 12 1017.0 1017.0 0.0
29/11:00am 29.9 29.5 16.3 43 8.5 NE 13 19 7 10 1017.6 1017.6 0.0
29/10:30am 28.4 27.7 16.3 47 7.5 ENE 15 24 8 13 1018.0 1018.0 0.0
29/10:00am 27.8 27.5 16.4 50 7.1 NE 13 22 7 12 1018.1 1018.1 0.0
29/09:30am 26.7 25.8 16.9 55 6.1 NE 17 26 9 14 1018.1 1018.1 0.0
29/09:00am 26.0 25.7 16.5 55 5.8 NE 13 20 7 11 1018.1 1018.1 0.0
29/08:30am 24.6 24.2 16.3 60 5.1 NE 13 26 7 14 1018.0 1018.0 0.0
29/08:00am 23.3 23.9 16.8 67 4.0 NE 9 13 5 7 1017.8 1017.8 0.0
29/07:30am 21.2 22.5 17.0 77 2.6 NE 6 9 3 5 1017.3 1017.3 0.0
29/07:00am 19.1 20.3 16.9 87 1.3 NE 6 7 3 4 1017.0 1017.0 0.0
29/06:30am 19.5 20.9 17.3 87 1.3 NE 6 7 3 4 1016.6 1016.6 0.0
29/06:00am 19.2 20.7 17.7 91 0.9 NE 6 7 3 4 1016.3 1016.3 0.0
29/05:30am 18.8 20.6 17.5 92 0.8 ENE 4 6 2 3 1016.1 1016.1 0.0
29/05:00am 19.0 21.6 17.5 91 0.9 CALM 0 0 0 0 1015.9 1015.9 0.0
29/04:30am 19.3 22.0 17.8 91 0.9 CALM 0 0 0 0 1015.9 1015.9 0.0
29/04:00am 19.5 22.1 17.6 89 1.2 CALM 0 0 0 0 1015.9 1015.9 0.0
29/03:30am 19.9 22.8 18.2 90 1.1 CALM 0 6 0 3 1015.9 1015.9 0.0
29/03:00am 19.7 20.9 18.2 91 0.9 NNE 9 11 5 6 1015.8 1015.8 0.0
29/02:30am 19.7 22.5 18.0 90 1.0 CALM 0 0 0 0 1016.0 1016.0 0.0
29/02:00am 20.0 22.9 18.1 89 1.2 CALM 0 0 0 0 1016.0 1016.0 0.0
29/01:30am 20.3 23.2 18.2 88 1.3 CALM 0 0 0 0 1016.3 1016.3 0.0
29/01:00am 20.5 23.1 18.3 87 1.4 NNE 2 7 1 4 1016.6 1016.6 0.0
29/12:30am 21.0 24.1 18.6 86 1.5 CALM 0 0 0 0 1016.7 1016.7 0.0
29/12:00am 21.6 24.8 18.8 84 1.8 CALM 0 0 0 0 1016.9 1016.9 0.0
 
Date/Time
EST
Temp
°C
App
Temp
°C
Dew
Point
Rel
Hum
%
Delta-T
°C
Wind Press
QNH
hPa
Press
MSL
hPa
Rain
since 9 am
mm
Dir
 
Spd
km/h
Gust
km/h
Spd
kts
Gust
kts
28/11:30pm 22.2 25.5 19.0 82 2.0 CALM 0 0 0 0 1017.0 1017.0 0.0
28/11:00pm 22.8 25.0 19.2 80 2.3 NE 6 9 3 5 1017.0 1017.0 0.0
28/10:30pm 23.1 25.7 19.3 79 2.4 SSE 4 13 2 7 1016.7 1016.7 0.0
28/10:00pm 23.3 25.6 19.5 79 2.4 NNE 6 13 3 7 1016.4 1016.4 0.0
28/09:30pm 23.4 25.0 19.1 77 2.7 SW 9 13 5 7 1015.8 1015.8 0.0
28/09:00pm 23.8 25.1 19.3 76 2.9 SW 11 17 6 9 1015.5 1015.5 0.0
28/08:30pm 24.1 25.0 19.2 74 3.1 SW 13 17 7 9 1015.2 1015.2 0.0
28/08:00pm 24.6 25.7 18.8 70 3.7 SW 11 20 6 11 1014.7 1014.7 0.0
28/07:30pm 25.1 25.2 18.3 66 4.3 SW 15 20 8 11 1014.3 1014.2 0.0
28/07:00pm 25.7 25.8 18.4 64 4.6 WSW 15 20 8 11 1013.8 1013.7 0.0
28/06:30pm 26.6 26.3 18.2 60 5.3 WSW 17 22 9 12 1013.2 1013.1 0.0
28/06:00pm 28.5 27.4 17.4 51 7.0 WSW 19 26 10 14 1012.9 1012.8 0.0
28/05:30pm 29.9 29.1 17.0 45 8.1 WSW 17 26 9 14 1012.4 1012.3 0.0
28/05:00pm 33.6 31.2 11.4 25 13.0 SSE 15 24 8 13 1012.0 1011.9 0.0
28/04:30pm 33.6 31.8 12.0 27 12.8 E 13 20 7 11 1011.9 1011.8 0.0
28/04:00pm 34.4 32.6 12.1 26 13.3 E 13 22 7 12 1011.9 1011.8 0.0
28/03:30pm 34.2 31.6 12.0 26 13.2 ESE 17 28 9 15 1011.9 1011.8 0.0
28/03:00pm 33.6 31.9 12.6 28 12.6 ESE 13 24 7 13 1012.3 1012.2 0.0
28/02:30pm 33.5 31.8 12.5 28 12.5 E 13 26 7 14 1012.8 1012.7 0.0
28/02:00pm 32.5 30.1 12.7 30 11.8 ESE 17 28 9 15 1013.3 1013.2 0.0
28/01:30pm 32.6 31.6 13.3 31 11.6 ENE 11 22 6 12 1014.0 1013.9 0.0
28/01:00pm 32.4 31.6 14.1 33 11.1 ENE 11 20 6 11 1014.4 1014.4 0.0
28/12:30pm 30.9 28.5 12.8 33 10.7 E 17 32 9 17 1015.0 1015.0 0.0
28/12:00pm 30.3 28.2 13.6 36 10.0 ESE 17 28 9 15 1015.6 1015.6 0.0
28/11:30am 31.1 29.9 15.1 38 9.8 ENE 15 24 8 13 1016.1 1016.1 0.0
28/11:00am 29.5 27.9 14.9 41 8.9 ENE 17 26 9 14 1016.6 1016.6 0.0
28/10:30am 28.4 26.4 15.0 44 8.1 E 19 28 10 15 1017.2 1017.2 0.0
28/10:00am 27.6 26.2 15.6 48 7.3 E 17 28 9 15 1017.6 1017.6 0.0
28/09:30am 26.6 24.7 15.3 50 6.9 ENE 19 28 10 15 1017.6 1017.6 0.0
28/09:00am 25.8 24.7 16.4 56 5.8 ENE 17 30 9 16 1017.7 1017.7 0.0
28/08:30am 24.5 23.8 16.5 61 4.9 ENE 15 24 8 13 1017.6 1017.6 0.0
28/08:00am 23.0 23.7 17.0 69 3.7 NE 9 17 5 9 1017.4 1017.4 0.0
28/07:30am 20.6 21.8 16.8 79 2.3 ENE 6 11 3 6 1017.1 1017.1 0.0
28/07:00am 18.5 19.9 16.3 87 1.3 ENE 4 7 2 4 1016.8 1016.8 0.0
28/06:30am 18.0 19.1 16.5 91 0.9 ENE 6 7 3 4 1016.7 1016.7 0.0
28/06:00am 17.7 18.6 16.2 91 0.9 E 6 7 3 4 1016.4 1016.4 0.0
28/05:30am 17.8 19.9 16.3 91 0.9 CALM 0 0 0 0 1016.3 1016.3 0.0
28/05:00am 18.1 20.2 16.3 89 1.1 CALM 0 0 0 0 1016.1 1016.1 0.0
28/04:30am 18.6 20.8 16.4 87 1.3 CALM 0 0 0 0 1016.1 1016.1 0.0
28/04:00am 19.2 21.4 16.4 84 1.7 CALM 0 0 0 0 1016.2 1016.2 0.0
28/03:30am 19.3 21.6 16.7 85 1.6 CALM 0 0 0 0 1015.9 1015.9 0.0
28/03:00am 19.4 21.6 16.6 84 1.7 CALM 0 0 0 0 1015.9 1015.9 0.0
28/02:30am 20.1 22.5 17.1 83 1.8 CALM 0 0 0 0 1015.8 1015.8 0.0
28/02:00am 20.5 22.0 17.5 83 1.8 NE 6 7 3 4 1016.0 1016.0 0.0
28/01:30am 20.7 22.9 17.5 82 2.0 NE 2 6 1 3 1016.1 1016.1 0.0
28/01:00am 21.1 23.8 17.7 81 2.1 CALM 0 4 0 2 1016.1 1016.1 0.0
28/12:30am 21.6 23.2 17.8 79 2.4 NNE 6 7 3 4 1016.2 1016.2 0.0
28/12:00am 23.0 24.7 18.1 74 3.1 NE 6 7 3 4 1016.3 1016.3 0.0
 
Date/Time
EST
Temp
°C
App
Temp
°C
Dew
Point
Rel
Hum
%
Delta-T
°C
Wind Press
QNH
hPa
Press
MSL
hPa
Rain
since 9 am
mm
Dir
 
Spd
km/h
Gust
km/h
Spd
kts
Gust
kts
27/11:30pm 23.1 24.5 18.6 76 2.8 NE 9 20 5 11 1016.5 1016.5 0.0
27/11:00pm 22.6 23.7 18.8 79 2.4 ENE 11 20 6 11 1016.3 1016.3 0.0
27/10:30pm 22.7 24.8 18.9 79 2.4 SSW 6 9 3 5 1015.5 1015.5 0.0
27/10:00pm 23.1 24.9 18.8 77 2.7 SSW 7 9 4 5 1015.7 1015.7 0.0
27/09:30pm 23.4 24.8 18.7 75 3.0 SSW 9 11 5 6 1015.6 1015.6 0.0
27/09:00pm 23.8 25.2 18.7 73 3.2 SW 9 13 5 7 1015.6 1015.6 0.0
27/08:30pm 24.1 24.5 18.1 69 3.8 SW 13 19 7 10 1015.5 1015.5 0.0
27/08:00pm 24.6 24.3 17.3 64 4.5 SW 15 22 8 12 1015.2 1015.2 0.0
27/07:30pm 25.2 24.6 16.6 59 5.3 SW 15 20 8 11 1014.9 1014.9 0.0
27/07:00pm 25.7 24.9 16.0 55 5.9 SW 15 20 8 11 1014.6 1014.6 0.0
27/06:30pm 26.6 25.6 15.6 50 6.7 WSW 15 22 8 12 1014.1 1014.0 0.0
27/06:00pm 27.7 25.5 14.3 43 8.0 WSW 19 28 10 15 1013.6 1013.5 0.0
27/05:30pm 28.9 26.5 15.4 44 8.3 W 22 28 12 15 1013.2 1013.1 0.0
27/05:00pm 30.4 28.1 15.7 41 9.1 WSW 22 32 12 17 1012.9 1012.8 0.0
27/04:30pm 31.0 29.1 15.8 40 9.4 WSW 20 28 11 15 1012.7 1012.6 0.0
27/04:00pm 31.8 29.7 15.3 37 10.2 WSW 20 35 11 19 1012.4 1012.3 0.0
27/03:30pm 33.8 31.5 11.6 26 13.1 SSW 15 24 8 13 1012.5 1012.4 0.0
27/03:00pm 33.4 30.2 11.3 26 12.9 SSE 19 30 10 16 1012.9 1012.8 0.0
27/02:30pm 33.3 30.8 11.2 26 12.9 ESE 15 32 8 17 1013.1 1013.0 0.0
27/02:00pm 32.7 30.4 11.8 28 12.3 SE 15 24 8 13 1013.7 1013.6 0.0
27/01:30pm 32.4 30.6 12.1 29 12.0 ESE 13 20 7 11 1014.1 1014.0 0.0
27/01:00pm 31.4 29.6 12.2 30 11.3 SSE 13 24 7 13 1014.7 1014.7 0.0
27/12:30pm 31.1 29.4 12.5 32 11.0 E 13 20 7 11 1015.3 1015.3 0.0
27/12:00pm 30.6 28.3 13.0 34 10.5 ENE 17 24 9 13 1016.0 1016.0 0.0
27/11:30am 29.7 28.2 14.3 39 9.3 NE 15 26 8 14 1016.6 1016.6 0.0
27/11:00am 28.9 27.9 14.7 42 8.6 ENE 13 22 7 12 1017.2 1017.2 0.0
27/10:30am 28.0 26.4 15.0 45 7.9 ENE 17 26 9 14 1017.8 1017.8 0.0
27/10:00am 27.0 24.9 14.7 47 7.4 ENE 19 28 10 15 1018.2 1018.2 0.0

Other Formats:

Comma delimited format used in spreadsheet applications
http://www.bom.gov.au/fwo/IDQ60801/IDQ60801.94268.axf

JavaScript Object Notation format (JSON) in row-major order
http://www.bom.gov.au/fwo/IDQ60801/IDQ60801.94268.json